sensor_id;sensor_type;location;lat;lon;timestamp;P1;durP1;ratioP1;P2;durP2;ratioP2
13487;SDS011;6816;48.506;9.050;2023-04-01T00:00:14;2.10;;;0.60;;
13487;SDS011;6816;48.506;9.050;2023-04-01T00:03:16;1.30;;;0.50;;
13487;SDS011;6816;48.506;9.050;2023-04-01T00:06:17;1.20;;;0.37;;
13487;SDS011;6816;48.506;9.050;2023-04-01T00:09:18;1.37;;;0.30;;
13487;SDS011;6816;48.506;9.050;2023-04-01T00:12:19;0.93;;;0.30;;
13487;SDS011;6816;48.506;9.050;2023-04-01T00:15:20;2.97;;;0.50;;
13487;SDS011;6816;48.506;9.050;2023-04-01T00:18:21;3.50;;;0.53;;
13487;SDS011;6816;48.506;9.050;2023-04-01T00:21:21;2.83;;;0.40;;
13487;SDS011;6816;48.506;9.050;2023-04-01T00:24:22;1.17;;;0.40;;
13487;SDS011;6816;48.506;9.050;2023-04-01T00:27:23;1.57;;;0.40;;
13487;SDS011;6816;48.506;9.050;2023-04-01T00:30:24;2.43;;;0.40;;
13487;SDS011;6816;48.506;9.050;2023-04-01T00:33:25;0.30;;;0.30;;
13487;SDS011;6816;48.506;9.050;2023-04-01T00:36:27;0.80;;;0.30;;
13487;SDS011;6816;48.506;9.050;2023-04-01T00:39:28;1.90;;;0.50;;
13487;SDS011;6816;48.506;9.050;2023-04-01T00:42:32;1.60;;;0.40;;
13487;SDS011;6816;48.506;9.050;2023-04-01T00:45:34;1.17;;;0.30;;
13487;SDS011;6816;48.506;9.050;2023-04-01T00:48:42;0.83;;;0.40;;
13487;SDS011;6816;48.506;9.050;2023-04-01T00:51:55;2.23;;;0.40;;
13487;SDS011;6816;48.506;9.050;2023-04-01T00:54:59;0.73;;;0.30;;
13487;SDS011;6816;48.506;9.050;2023-04-01T00:58:02;1.13;;;0.20;;
13487;SDS011;6816;48.506;9.050;2023-04-01T01:01:05;2.70;;;0.40;;
13487;SDS011;6816;48.506;9.050;2023-04-01T01:04:24;0.77;;;0.30;;
13487;SDS011;6816;48.506;9.050;2023-04-01T01:07:36;0.60;;;0.27;;
13487;SDS011;6816;48.506;9.050;2023-04-01T01:10:57;2.23;;;0.40;;
13487;SDS011;6816;48.506;9.050;2023-04-01T01:14:00;1.80;;;0.80;;
13487;SDS011;6816;48.506;9.050;2023-04-01T01:17:31;1.73;;;0.40;;
13487;SDS011;6816;48.506;9.050;2023-04-01T01:24:05;0.43;;;0.30;;
13487;SDS011;6816;48.506;9.050;2023-04-01T01:27:12;1.07;;;0.30;;
13487;SDS011;6816;48.506;9.050;2023-04-01T01:30:34;0.87;;;0.27;;
13487;SDS011;6816;48.506;9.050;2023-04-01T01:33:56;0.60;;;0.20;;
13487;SDS011;6816;48.506;9.050;2023-04-01T01:37:14;1.17;;;0.30;;
13487;SDS011;6816;48.506;9.050;2023-04-01T01:40:17;0.73;;;0.30;;
13487;SDS011;6816;48.506;9.050;2023-04-01T01:43:21;0.50;;;0.20;;
13487;SDS011;6816;48.506;9.050;2023-04-01T01:46:25;0.40;;;0.30;;
13487;SDS011;6816;48.506;9.050;2023-04-01T01:49:28;0.33;;;0.20;;
13487;SDS011;6816;48.506;9.050;2023-04-01T01:52:32;0.87;;;0.10;;
13487;SDS011;6816;48.506;9.050;2023-04-01T01:55:37;0.40;;;0.20;;
13487;SDS011;6816;48.506;9.050;2023-04-01T01:58:47;1.17;;;0.20;;
13487;SDS011;6816;48.506;9.050;2023-04-01T02:01:51;0.33;;;0.10;;
13487;SDS011;6816;48.506;9.050;2023-04-01T02:04:55;0.20;;;0.20;;
13487;SDS011;6816;48.506;9.050;2023-04-01T02:08:01;0.30;;;0.10;;
13487;SDS011;6816;48.506;9.050;2023-04-01T02:11:09;0.47;;;0.17;;
13487;SDS011;6816;48.506;9.050;2023-04-01T02:14:45;0.60;;;0.10;;
13487;SDS011;6816;48.506;9.050;2023-04-01T02:17:47;0.10;;;0.10;;
13487;SDS011;6816;48.506;9.050;2023-04-01T02:20:49;0.33;;;0.13;;
13487;SDS011;6816;48.506;9.050;2023-04-01T02:23:51;0.63;;;0.27;;
13487;SDS011;6816;48.506;9.050;2023-04-01T02:26:53;0.40;;;0.30;;
13487;SDS011;6816;48.506;9.050;2023-04-01T02:29:54;0.40;;;0.10;;
13487;SDS011;6816;48.506;9.050;2023-04-01T02:32:55;0.37;;;0.10;;
13487;SDS011;6816;48.506;9.050;2023-04-01T02:35:57;0.23;;;0.10;;
13487;SDS011;6816;48.506;9.050;2023-04-01T02:38:59;0.70;;;0.17;;
13487;SDS011;6816;48.506;9.050;2023-04-01T02:42:02;0.40;;;0.20;;
13487;SDS011;6816;48.506;9.050;2023-04-01T02:45:03;0.40;;;0.10;;
13487;SDS011;6816;48.506;9.050;2023-04-01T02:48:04;0.00;;;0.00;;
13487;SDS011;6816;48.506;9.050;2023-04-01T02:51:05;0.00;;;0.00;;
13487;SDS011;6816;48.506;9.050;2023-04-01T02:54:06;0.10;;;0.07;;
13487;SDS011;6816;48.506;9.050;2023-04-01T02:57:07;0.43;;;0.10;;
13487;SDS011;6816;48.506;9.050;2023-04-01T03:00:07;0.30;;;0.10;;
13487;SDS011;6816;48.506;9.050;2023-04-01T03:03:11;0.10;;;0.10;;
13487;SDS011;6816;48.506;9.050;2023-04-01T03:06:14;0.30;;;0.00;;
13487;SDS011;6816;48.506;9.050;2023-04-01T03:09:15;0.27;;;0.10;;
13487;SDS011;6816;48.506;9.050;2023-04-01T03:12:16;1.20;;;0.07;;
13487;SDS011;6816;48.506;9.050;2023-04-01T03:15:16;0.40;;;0.10;;
13487;SDS011;6816;48.506;9.050;2023-04-01T03:18:17;1.23;;;0.10;;
13487;SDS011;6816;48.506;9.050;2023-04-01T03:21:19;0.10;;;0.00;;
13487;SDS011;6816;48.506;9.050;2023-04-01T03:24:21;0.00;;;0.00;;
13487;SDS011;6816;48.506;9.050;2023-04-01T03:27:22;1.03;;;0.10;;
13487;SDS011;6816;48.506;9.050;2023-04-01T03:30:23;0.10;;;0.00;;
13487;SDS011;6816;48.506;9.050;2023-04-01T03:33:23;1.83;;;0.10;;
13487;SDS011;6816;48.506;9.050;2023-04-01T03:36:24;0.33;;;0.10;;
13487;SDS011;6816;48.506;9.050;2023-04-01T03:39:25;0.13;;;0.00;;
13487;SDS011;6816;48.506;9.050;2023-04-01T03:42:26;1.13;;;0.00;;
13487;SDS011;6816;48.506;9.050;2023-04-01T03:45:26;0.43;;;0.10;;
13487;SDS011;6816;48.506;9.050;2023-04-01T03:48:27;0.20;;;0.00;;
13487;SDS011;6816;48.506;9.050;2023-04-01T03:51:28;0.43;;;0.10;;
13487;SDS011;6816;48.506;9.050;2023-04-01T03:54:28;0.10;;;0.10;;
13487;SDS011;6816;48.506;9.050;2023-04-01T03:57:32;0.43;;;0.10;;
13487;SDS011;6816;48.506;9.050;2023-04-01T04:00:33;0.27;;;0.07;;
13487;SDS011;6816;48.506;9.050;2023-04-01T04:03:33;0.43;;;0.07;;
13487;SDS011;6816;48.506;9.050;2023-04-01T04:06:34;0.00;;;0.00;;
13487;SDS011;6816;48.506;9.050;2023-04-01T04:09:35;0.73;;;0.10;;
13487;SDS011;6816;48.506;9.050;2023-04-01T04:12:35;0.40;;;0.10;;
13487;SDS011;6816;48.506;9.050;2023-04-01T04:15:36;1.80;;;0.10;;
13487;SDS011;6816;48.506;9.050;2023-04-01T04:18:36;0.63;;;0.10;;
13487;SDS011;6816;48.506;9.050;2023-04-01T04:21:37;0.57;;;0.20;;
13487;SDS011;6816;48.506;9.050;2023-04-01T04:24:40;0.40;;;0.20;;
13487;SDS011;6816;48.506;9.050;2023-04-01T04:27:40;0.30;;;0.10;;
13487;SDS011;6816;48.506;9.050;2023-04-01T04:30:41;1.37;;;0.30;;
13487;SDS011;6816;48.506;9.050;2023-04-01T04:33:42;0.53;;;0.20;;
13487;SDS011;6816;48.506;9.050;2023-04-01T04:36:42;1.00;;;0.20;;
13487;SDS011;6816;48.506;9.050;2023-04-01T04:39:43;1.33;;;0.30;;
13487;SDS011;6816;48.506;9.050;2023-04-01T04:42:44;0.93;;;0.30;;
13487;SDS011;6816;48.506;9.050;2023-04-01T04:45:44;0.80;;;0.20;;
13487;SDS011;6816;48.506;9.050;2023-04-01T04:48:45;1.03;;;0.40;;
13487;SDS011;6816;48.506;9.050;2023-04-01T04:51:46;3.33;;;0.20;;
13487;SDS011;6816;48.506;9.050;2023-04-01T04:54:48;0.93;;;0.20;;
13487;SDS011;6816;48.506;9.050;2023-04-01T04:57:48;0.47;;;0.10;;
13487;SDS011;6816;48.506;9.050;2023-04-01T05:00:49;0.47;;;0.20;;
13487;SDS011;6816;48.506;9.050;2023-04-01T05:03:50;1.40;;;0.30;;
13487;SDS011;6816;48.506;9.050;2023-04-01T05:06:51;0.63;;;0.27;;
13487;SDS011;6816;48.506;9.050;2023-04-01T05:09:52;0.60;;;0.23;;
13487;SDS011;6816;48.506;9.050;2023-04-01T05:12:52;1.37;;;0.37;;
13487;SDS011;6816;48.506;9.050;2023-04-01T05:15:53;0.40;;;0.10;;
13487;SDS011;6816;48.506;9.050;2023-04-01T05:18:54;1.37;;;0.20;;
13487;SDS011;6816;48.506;9.050;2023-04-01T05:21:55;0.53;;;0.10;;
13487;SDS011;6816;48.506;9.050;2023-04-01T05:24:58;1.17;;;0.20;;
13487;SDS011;6816;48.506;9.050;2023-04-01T05:28:00;1.27;;;0.40;;
13487;SDS011;6816;48.506;9.050;2023-04-01T05:31:01;1.17;;;0.20;;
13487;SDS011;6816;48.506;9.050;2023-04-01T05:34:03;0.57;;;0.30;;
13487;SDS011;6816;48.506;9.050;2023-04-01T05:37:03;0.80;;;0.33;;
13487;SDS011;6816;48.506;9.050;2023-04-01T05:40:04;0.57;;;0.30;;
13487;SDS011;6816;48.506;9.050;2023-04-01T05:43:05;1.40;;;0.40;;
13487;SDS011;6816;48.506;9.050;2023-04-01T05:46:06;1.03;;;0.47;;
13487;SDS011;6816;48.506;9.050;2023-04-01T05:49:07;0.40;;;0.20;;
13487;SDS011;6816;48.506;9.050;2023-04-01T05:52:07;0.43;;;0.30;;
13487;SDS011;6816;48.506;9.050;2023-04-01T05:55:08;0.70;;;0.30;;
13487;SDS011;6816;48.506;9.050;2023-04-01T05:58:09;0.67;;;0.20;;
13487;SDS011;6816;48.506;9.050;2023-04-01T06:01:10;0.27;;;0.10;;
13487;SDS011;6816;48.506;9.050;2023-04-01T06:04:15;1.23;;;0.30;;
13487;SDS011;6816;48.506;9.050;2023-04-01T06:07:17;2.10;;;0.13;;
13487;SDS011;6816;48.506;9.050;2023-04-01T06:10:19;0.57;;;0.20;;
13487;SDS011;6816;48.506;9.050;2023-04-01T06:13:30;0.70;;;0.10;;
13487;SDS011;6816;48.506;9.050;2023-04-01T06:19:55;1.13;;;0.20;;
13487;SDS011;6816;48.506;9.050;2023-04-01T06:23:20;0.60;;;0.20;;
13487;SDS011;6816;48.506;9.050;2023-04-01T06:30:24;0.87;;;0.20;;
13487;SDS011;6816;48.506;9.050;2023-04-01T06:34:00;0.43;;;0.13;;
13487;SDS011;6816;48.506;9.050;2023-04-01T06:37:28;0.53;;;0.10;;
13487;SDS011;6816;48.506;9.050;2023-04-01T07:03:30;1.50;;;0.40;;
13487;SDS011;6816;48.506;9.050;2023-04-01T07:06:39;0.60;;;0.23;;
13487;SDS011;6816;48.506;9.050;2023-04-01T07:09:53;1.43;;;0.30;;
13487;SDS011;6816;48.506;9.050;2023-04-01T07:13:00;0.90;;;0.30;;
13487;SDS011;6816;48.506;9.050;2023-04-01T07:16:12;1.23;;;0.40;;
13487;SDS011;6816;48.506;9.050;2023-04-01T07:22:51;0.33;;;0.30;;
13487;SDS011;6816;48.506;9.050;2023-04-01T07:25:59;0.40;;;0.13;;
13487;SDS011;6816;48.506;9.050;2023-04-01T07:29:05;0.80;;;0.30;;
13487;SDS011;6816;48.506;9.050;2023-04-01T07:45:45;1.73;;;0.40;;
13487;SDS011;6816;48.506;9.050;2023-04-01T07:52:23;0.93;;;0.27;;
13487;SDS011;6816;48.506;9.050;2023-04-01T07:56:18;1.23;;;0.50;;
13487;SDS011;6816;48.506;9.050;2023-04-01T07:59:05;1.17;;;0.30;;
13487;SDS011;6816;48.506;9.050;2023-04-01T08:02:25;0.53;;;0.30;;
13487;SDS011;6816;48.506;9.050;2023-04-01T08:09:01;1.60;;;0.30;;
13487;SDS011;6816;48.506;9.050;2023-04-01T08:12:12;1.47;;;0.37;;
13487;SDS011;6816;48.506;9.050;2023-04-01T08:15:39;0.60;;;0.23;;
13487;SDS011;6816;48.506;9.050;2023-04-01T08:21:52;0.90;;;0.30;;
13487;SDS011;6816;48.506;9.050;2023-04-01T08:24:58;0.60;;;0.10;;
13487;SDS011;6816;48.506;9.050;2023-04-01T08:31:11;0.50;;;0.30;;
13487;SDS011;6816;48.506;9.050;2023-04-01T08:34:20;0.20;;;0.10;;
13487;SDS011;6816;48.506;9.050;2023-04-01T08:37:25;0.40;;;0.20;;
13487;SDS011;6816;48.506;9.050;2023-04-01T09:00:14;1.10;;;0.40;;
13487;SDS011;6816;48.506;9.050;2023-04-01T09:17:13;1.27;;;0.40;;
13487;SDS011;6816;48.506;9.050;2023-04-01T09:20:46;0.60;;;0.30;;
13487;SDS011;6816;48.506;9.050;2023-04-01T09:27:28;0.50;;;0.30;;
13487;SDS011;6816;48.506;9.050;2023-04-01T09:37:13;0.40;;;0.27;;
13487;SDS011;6816;48.506;9.050;2023-04-01T09:40:46;0.90;;;0.40;;
13487;SDS011;6816;48.506;9.050;2023-04-01T09:57:46;0.63;;;0.30;;
13487;SDS011;6816;48.506;9.050;2023-04-01T10:21:22;0.60;;;0.30;;
13487;SDS011;6816;48.506;9.050;2023-04-01T10:31:25;0.30;;;0.20;;
13487;SDS011;6816;48.506;9.050;2023-04-01T11:25:42;0.37;;;0.30;;
13487;SDS011;6816;48.506;9.050;2023-04-01T11:32:28;0.53;;;0.30;;
13487;SDS011;6816;48.506;9.050;2023-04-01T11:45:32;0.40;;;0.30;;
13487;SDS011;6816;48.506;9.050;2023-04-01T12:08:39;0.67;;;0.30;;
13487;SDS011;6816;48.506;9.050;2023-04-01T12:18:54;0.20;;;0.20;;
13487;SDS011;6816;48.506;9.050;2023-04-01T12:28:44;0.50;;;0.20;;
13487;SDS011;6816;48.506;9.050;2023-04-01T12:35:18;0.40;;;0.30;;
13487;SDS011;6816;48.506;9.050;2023-04-01T12:38:30;0.40;;;0.20;;
13487;SDS011;6816;48.506;9.050;2023-04-01T12:52:25;0.60;;;0.13;;
13487;SDS011;6816;48.506;9.050;2023-04-01T12:55:44;0.57;;;0.10;;
13487;SDS011;6816;48.506;9.050;2023-04-01T12:58:53;0.40;;;0.13;;
13487;SDS011;6816;48.506;9.050;2023-04-01T13:12:58;1.00;;;0.10;;
13487;SDS011;6816;48.506;9.050;2023-04-01T13:16:45;0.37;;;0.20;;
13487;SDS011;6816;48.506;9.050;2023-04-01T13:27:21;1.73;;;1.63;;
13487;SDS011;6816;48.506;9.050;2023-04-01T13:50:18;0.20;;;0.20;;
13487;SDS011;6816;48.506;9.050;2023-04-01T14:10:40;0.37;;;0.20;;
13487;SDS011;6816;48.506;9.050;2023-04-01T14:13:59;0.70;;;0.30;;
13487;SDS011;6816;48.506;9.050;2023-04-01T14:30:26;0.60;;;0.60;;
13487;SDS011;6816;48.506;9.050;2023-04-01T14:33:31;0.40;;;0.40;;
13487;SDS011;6816;48.506;9.050;2023-04-01T14:37:01;0.40;;;0.30;;
13487;SDS011;6816;48.506;9.050;2023-04-01T14:44:05;0.47;;;0.30;;
13487;SDS011;6816;48.506;9.050;2023-04-01T14:50:43;0.30;;;0.30;;
13487;SDS011;6816;48.506;9.050;2023-04-01T15:00:17;1.23;;;0.37;;
13487;SDS011;6816;48.506;9.050;2023-04-01T15:06:35;0.50;;;0.40;;
13487;SDS011;6816;48.506;9.050;2023-04-01T15:30:17;1.07;;;0.23;;
13487;SDS011;6816;48.506;9.050;2023-04-01T15:39:51;0.50;;;0.40;;
13487;SDS011;6816;48.506;9.050;2023-04-01T15:49:37;1.43;;;0.60;;
13487;SDS011;6816;48.506;9.050;2023-04-01T15:52:43;0.60;;;0.30;;
13487;SDS011;6816;48.506;9.050;2023-04-01T15:59:30;0.93;;;0.40;;
13487;SDS011;6816;48.506;9.050;2023-04-01T16:06:18;0.50;;;0.20;;
13487;SDS011;6816;48.506;9.050;2023-04-01T16:13:41;0.93;;;0.30;;
13487;SDS011;6816;48.506;9.050;2023-04-01T16:20:20;1.17;;;0.40;;
13487;SDS011;6816;48.506;9.050;2023-04-01T16:23:36;0.43;;;0.20;;
13487;SDS011;6816;48.506;9.050;2023-04-01T16:30:03;0.80;;;0.40;;
13487;SDS011;6816;48.506;9.050;2023-04-01T16:36:49;0.97;;;0.40;;
13487;SDS011;6816;48.506;9.050;2023-04-01T16:39:54;1.87;;;0.50;;
13487;SDS011;6816;48.506;9.050;2023-04-01T16:47:11;1.03;;;0.40;;
13487;SDS011;6816;48.506;9.050;2023-04-01T16:50:19;1.30;;;0.70;;
13487;SDS011;6816;48.506;9.050;2023-04-01T16:53:41;0.43;;;0.20;;
13487;SDS011;6816;48.506;9.050;2023-04-01T16:57:12;0.80;;;0.30;;
13487;SDS011;6816;48.506;9.050;2023-04-01T17:03:37;0.60;;;0.20;;
13487;SDS011;6816;48.506;9.050;2023-04-01T17:06:47;0.50;;;0.40;;
13487;SDS011;6816;48.506;9.050;2023-04-01T17:13:35;0.77;;;0.40;;
13487;SDS011;6816;48.506;9.050;2023-04-01T17:17:08;0.60;;;0.50;;
13487;SDS011;6816;48.506;9.050;2023-04-01T17:23:34;1.27;;;0.67;;
13487;SDS011;6816;48.506;9.050;2023-04-01T17:30:06;1.37;;;0.70;;
13487;SDS011;6816;48.506;9.050;2023-04-01T17:46:54;0.43;;;0.43;;
13487;SDS011;6816;48.506;9.050;2023-04-01T18:09:43;0.80;;;0.60;;
13487;SDS011;6816;48.506;9.050;2023-04-01T18:16:22;1.33;;;0.70;;
13487;SDS011;6816;48.506;9.050;2023-04-01T18:23:24;0.90;;;0.50;;
13487;SDS011;6816;48.506;9.050;2023-04-01T18:26:31;2.03;;;0.50;;
13487;SDS011;6816;48.506;9.050;2023-04-01T18:29:59;0.77;;;0.50;;
13487;SDS011;6816;48.506;9.050;2023-04-01T18:39:30;1.10;;;0.30;;
13487;SDS011;6816;48.506;9.050;2023-04-01T18:46:03;1.30;;;0.60;;
13487;SDS011;6816;48.506;9.050;2023-04-01T18:49:20;3.27;;;0.90;;
13487;SDS011;6816;48.506;9.050;2023-04-01T18:55:36;1.43;;;1.20;;
13487;SDS011;6816;48.506;9.050;2023-04-01T18:58:59;1.83;;;1.73;;
13487;SDS011;6816;48.506;9.050;2023-04-01T19:05:29;1.00;;;0.80;;
13487;SDS011;6816;48.506;9.050;2023-04-01T19:08:39;4.43;;;0.70;;
13487;SDS011;6816;48.506;9.050;2023-04-01T19:15:25;0.30;;;0.20;;
13487;SDS011;6816;48.506;9.050;2023-04-01T19:21:58;0.73;;;0.30;;
13487;SDS011;6816;48.506;9.050;2023-04-01T19:28:38;1.50;;;0.40;;
13487;SDS011;6816;48.506;9.050;2023-04-01T19:34:57;1.90;;;1.30;;
13487;SDS011;6816;48.506;9.050;2023-04-01T19:45:23;0.97;;;0.70;;
13487;SDS011;6816;48.506;9.050;2023-04-01T19:48:33;0.57;;;0.50;;
13487;SDS011;6816;48.506;9.050;2023-04-01T20:18:45;1.70;;;1.27;;
13487;SDS011;6816;48.506;9.050;2023-04-01T20:21:49;1.17;;;1.00;;
13487;SDS011;6816;48.506;9.050;2023-04-01T20:24:51;1.37;;;0.90;;
13487;SDS011;6816;48.506;9.050;2023-04-01T20:28:12;1.80;;;1.13;;
13487;SDS011;6816;48.506;9.050;2023-04-01T20:31:26;1.50;;;1.10;;
13487;SDS011;6816;48.506;9.050;2023-04-01T20:35:19;1.83;;;1.47;;
13487;SDS011;6816;48.506;9.050;2023-04-01T20:38:24;3.07;;;1.83;;
13487;SDS011;6816;48.506;9.050;2023-04-01T20:41:55;1.90;;;1.70;;
13487;SDS011;6816;48.506;9.050;2023-04-01T20:45:15;1.80;;;1.43;;
13487;SDS011;6816;48.506;9.050;2023-04-01T20:51:38;1.30;;;1.20;;
13487;SDS011;6816;48.506;9.050;2023-04-01T21:01:00;1.60;;;1.47;;
13487;SDS011;6816;48.506;9.050;2023-04-01T21:04:28;2.20;;;1.30;;
13487;SDS011;6816;48.506;9.050;2023-04-01T21:07:39;2.40;;;1.73;;
13487;SDS011;6816;48.506;9.050;2023-04-01T21:20:24;1.77;;;1.43;;
13487;SDS011;6816;48.506;9.050;2023-04-01T21:26:56;2.00;;;1.80;;
13487;SDS011;6816;48.506;9.050;2023-04-01T22:11:14;0.70;;;0.40;;
13487;SDS011;6816;48.506;9.050;2023-04-01T22:14:50;0.50;;;0.50;;
13487;SDS011;6816;48.506;9.050;2023-04-01T22:17:53;0.77;;;0.50;;
13487;SDS011;6816;48.506;9.050;2023-04-01T22:28:07;0.30;;;0.20;;
13487;SDS011;6816;48.506;9.050;2023-04-01T22:31:13;0.30;;;0.30;;
13487;SDS011;6816;48.506;9.050;2023-04-01T22:40:51;0.30;;;0.20;;
13487;SDS011;6816;48.506;9.050;2023-04-01T22:43:55;0.30;;;0.20;;
13487;SDS011;6816;48.506;9.050;2023-04-01T22:47:01;0.47;;;0.30;;
13487;SDS011;6816;48.506;9.050;2023-04-01T22:56:57;0.20;;;0.20;;
13487;SDS011;6816;48.506;9.050;2023-04-01T22:59:57;0.17;;;0.10;;
13487;SDS011;6816;48.506;9.050;2023-04-01T23:03:11;0.27;;;0.20;;
13487;SDS011;6816;48.506;9.050;2023-04-01T23:06:31;0.50;;;0.27;;
13487;SDS011;6816;48.506;9.050;2023-04-01T23:09:38;0.33;;;0.20;;
13487;SDS011;6816;48.506;9.050;2023-04-01T23:12:39;0.30;;;0.30;;
13487;SDS011;6816;48.506;9.050;2023-04-01T23:15:41;0.30;;;0.20;;
13487;SDS011;6816;48.506;9.050;2023-04-01T23:29:16;0.67;;;0.30;;
13487;SDS011;6816;48.506;9.050;2023-04-01T23:32:19;0.40;;;0.30;;
13487;SDS011;6816;48.506;9.050;2023-04-01T23:35:25;0.20;;;0.20;;
13487;SDS011;6816;48.506;9.050;2023-04-01T23:38:26;0.40;;;0.20;;
13487;SDS011;6816;48.506;9.050;2023-04-01T23:41:28;0.33;;;0.20;;
13487;SDS011;6816;48.506;9.050;2023-04-01T23:44:31;0.30;;;0.20;;
13487;SDS011;6816;48.506;9.050;2023-04-01T23:47:33;0.40;;;0.30;;
13487;SDS011;6816;48.506;9.050;2023-04-01T23:50:37;0.57;;;0.30;;
13487;SDS011;6816;48.506;9.050;2023-04-01T23:53:41;0.30;;;0.20;;
13487;SDS011;6816;48.506;9.050;2023-04-01T23:56:46;0.40;;;0.30;;
